createdAt,value
2023-03-03T00:01:06.283Z,35.83
2023-03-03T00:03:35.622Z,36.11
2023-03-03T00:06:03.687Z,36.17
2023-03-03T00:08:30.416Z,36.11
2023-03-03T00:10:57.176Z,36.13
2023-03-03T00:13:25.346Z,35.84
2023-03-03T00:15:53.166Z,36.11
2023-03-03T00:18:23.280Z,35.92
2023-03-03T00:20:53.288Z,35.97
2023-03-03T00:23:24.420Z,36.33
2023-03-03T00:25:52.331Z,36.24
2023-03-03T00:28:22.635Z,35.88
2023-03-03T00:30:49.512Z,35.92
2023-03-03T00:33:23.251Z,36.25
2023-03-03T00:35:50.024Z,36.02
2023-03-03T00:38:18.562Z,36.46
2023-03-03T00:40:46.069Z,36.33
2023-03-03T00:43:16.372Z,36.46
2023-03-03T00:45:46.040Z,36.27
2023-03-03T00:48:15.868Z,36.38
2023-03-03T00:50:43.634Z,36.56
2023-03-03T00:53:12.607Z,36.80
2023-03-03T00:55:42.297Z,37.17
2023-03-03T00:58:09.293Z,37.17
2023-03-03T01:00:36.579Z,37.20
2023-03-03T01:03:05.786Z,37.36
2023-03-03T01:05:32.667Z,37.34
2023-03-03T01:07:59.462Z,37.74
2023-03-03T01:10:27.886Z,37.71
2023-03-03T01:12:57.903Z,37.61
2023-03-03T01:15:24.968Z,37.37
2023-03-03T01:17:51.820Z,37.70
2023-03-03T01:20:19.216Z,37.58
2023-03-03T01:22:45.938Z,37.50
2023-03-03T01:25:12.868Z,37.65
2023-03-03T01:27:39.629Z,37.57
2023-03-03T01:30:08.148Z,37.65
2023-03-03T01:32:35.107Z,37.80
2023-03-03T01:35:01.855Z,37.84
2023-03-03T01:37:28.886Z,37.64
2023-03-03T01:39:55.890Z,38.02
2023-03-03T01:42:22.982Z,37.99
2023-03-03T01:44:49.818Z,38.20
2023-03-03T01:47:21.245Z,38.13
2023-03-03T01:49:53.532Z,37.82
2023-03-03T01:52:23.406Z,38.03
2023-03-03T01:54:53.617Z,38.00
2023-03-03T01:57:25.011Z,38.18
2023-03-03T01:59:52.655Z,38.32
2023-03-03T02:02:19.756Z,38.05
2023-03-03T02:04:46.702Z,38.06
2023-03-03T02:07:15.100Z,37.95
2023-03-03T02:09:42.414Z,37.96
2023-03-03T02:12:11.643Z,38.37
2023-03-03T02:14:38.560Z,38.31
2023-03-03T02:17:05.367Z,38.40
2023-03-03T02:19:41.837Z,38.41
2023-03-03T02:22:08.892Z,37.98
2023-03-03T02:24:39.713Z,38.31
2023-03-03T02:27:08.977Z,38.33
2023-03-03T02:29:35.709Z,38.04
2023-03-03T02:32:02.548Z,38.03
2023-03-03T02:34:29.376Z,38.21
2023-03-03T02:36:56.322Z,38.45
2023-03-03T02:39:24.465Z,38.57
2023-03-03T02:41:55.733Z,38.46
2023-03-03T02:44:23.964Z,38.22
2023-03-03T02:46:52.462Z,38.34
2023-03-03T02:49:20.417Z,38.42
2023-03-03T02:51:47.153Z,38.19
2023-03-03T02:54:14.584Z,38.41
2023-03-03T02:56:41.773Z,38.60
2023-03-03T02:59:08.952Z,38.69
2023-03-03T03:01:37.328Z,38.38
2023-03-03T03:04:09.162Z,38.26
2023-03-03T03:06:36.189Z,38.65
2023-03-03T03:09:03.681Z,38.58
2023-03-03T03:11:30.542Z,38.62
2023-03-03T03:13:57.256Z,38.60
2023-03-03T03:16:23.947Z,38.49
2023-03-03T03:18:51.043Z,38.45
2023-03-03T03:21:18.105Z,38.70
2023-03-03T03:23:45.084Z,38.75
2023-03-03T03:26:12.233Z,38.55
2023-03-03T03:28:38.977Z,38.94
2023-03-03T03:31:06.696Z,38.70
2023-03-03T03:33:33.707Z,39.03
2023-03-03T03:36:00.624Z,38.94
2023-03-03T03:38:27.850Z,38.85
2023-03-03T03:40:54.801Z,38.98
2023-03-03T03:43:21.587Z,38.77
2023-03-03T03:45:48.405Z,38.88
2023-03-03T03:48:16.010Z,39.15
2023-03-03T03:50:42.824Z,38.75
2023-03-03T03:53:09.559Z,39.23
2023-03-03T03:55:36.331Z,39.24
2023-03-03T03:58:03.212Z,39.32
2023-03-03T04:00:29.977Z,39.17
2023-03-03T04:02:56.859Z,39.46
2023-03-03T04:05:23.648Z,39.46
2023-03-03T04:07:50.510Z,39.26
2023-03-03T04:10:18.134Z,39.42
2023-03-03T04:12:44.892Z,39.38
2023-03-03T04:15:13.344Z,39.25
2023-03-03T04:17:42.641Z,39.23
2023-03-03T04:20:13.212Z,39.02
2023-03-03T04:22:40.000Z,39.25
2023-03-03T04:25:07.834Z,38.95
2023-03-03T04:27:35.579Z,39.19
2023-03-03T04:30:02.839Z,39.08
2023-03-03T04:32:30.773Z,39.09
2023-03-03T04:35:07.251Z,39.40
2023-03-03T04:37:35.413Z,39.40
2023-03-03T04:40:07.330Z,39.06
2023-03-03T04:42:34.152Z,39.10
2023-03-03T04:45:00.961Z,39.41
2023-03-03T04:47:27.760Z,39.53
2023-03-03T04:49:54.578Z,39.15
2023-03-03T04:52:21.342Z,39.16
2023-03-03T04:54:48.120Z,39.22
2023-03-03T04:57:14.917Z,39.41
2023-03-03T04:59:41.683Z,39.48
2023-03-03T05:02:08.497Z,39.20
2023-03-03T05:04:35.249Z,39.59
2023-03-03T05:07:02.041Z,39.46
2023-03-03T05:09:28.900Z,39.55
2023-03-03T05:11:55.817Z,39.56
2023-03-03T05:14:22.565Z,39.35
2023-03-03T05:16:49.279Z,39.39
2023-03-03T05:19:16.286Z,39.69
2023-03-03T05:21:43.364Z,39.84
2023-03-03T05:24:19.989Z,39.29
2023-03-03T05:26:46.955Z,39.96
2023-03-03T05:29:13.857Z,39.71
2023-03-03T05:31:40.946Z,39.83
2023-03-03T05:34:08.435Z,39.61
2023-03-03T05:36:35.998Z,39.66
2023-03-03T05:39:03.796Z,39.87
2023-03-03T05:41:31.976Z,39.95
2023-03-03T05:43:58.816Z,39.66
2023-03-03T05:46:25.913Z,39.83
2023-03-03T05:48:52.873Z,39.68
2023-03-03T05:51:19.911Z,40.03
2023-03-03T05:53:47.090Z,39.85
2023-03-03T05:56:14.033Z,40.40
2023-03-03T05:58:41.124Z,40.24
2023-03-03T06:01:08.175Z,40.52
2023-03-03T06:03:35.127Z,40.03
2023-03-03T06:06:02.551Z,40.34
2023-03-03T06:08:29.957Z,39.96
2023-03-03T06:10:57.075Z,39.84
2023-03-03T06:13:24.008Z,40.13
2023-03-03T06:15:51.056Z,40.12
2023-03-03T06:18:18.075Z,39.81
2023-03-03T06:20:45.019Z,39.58
2023-03-03T06:23:12.419Z,39.73
2023-03-03T06:25:41.815Z,39.81
2023-03-03T06:28:09.671Z,39.62
2023-03-03T06:30:38.556Z,39.80
2023-03-03T06:33:05.525Z,39.63
2023-03-03T06:35:36.541Z,39.30
2023-03-03T06:38:03.939Z,39.38
2023-03-03T06:40:35.989Z,39.76
2023-03-03T06:43:05.832Z,39.16
2023-03-03T06:45:34.592Z,39.36
2023-03-03T06:48:06.851Z,39.41
2023-03-03T06:50:33.899Z,39.06
2023-03-03T06:53:08.552Z,39.13
2023-03-03T06:55:41.733Z,38.58
2023-03-03T06:58:13.508Z,38.75
2023-03-03T07:00:53.037Z,38.46
2023-03-03T07:03:33.069Z,38.36
2023-03-03T07:06:03.577Z,38.60
2023-03-03T07:08:35.530Z,38.26
2023-03-03T07:11:10.151Z,38.18
2023-03-03T07:13:46.974Z,38.65
2023-03-03T07:16:17.376Z,35.76
2023-03-03T07:18:53.328Z,36.36
2023-03-03T07:21:34.885Z,36.70
2023-03-03T07:24:15.680Z,36.58
2023-03-03T07:26:44.805Z,36.72
2023-03-03T07:29:16.536Z,36.52
2023-03-03T07:31:46.714Z,36.58
2023-03-03T07:34:22.168Z,36.22
2023-03-03T07:36:59.937Z,36.24
2023-03-03T07:39:33.964Z,36.50
2023-03-03T07:42:09.279Z,34.28
2023-03-03T07:44:37.181Z,34.40
2023-03-03T07:47:08.961Z,34.64
2023-03-03T07:49:38.553Z,34.35
2023-03-03T07:52:11.123Z,34.44
2023-03-03T07:54:58.127Z,35.11
2023-03-03T07:57:27.593Z,34.99
2023-03-03T07:59:55.163Z,35.22
2023-03-03T08:02:25.250Z,35.48
2023-03-03T08:04:59.081Z,35.57
2023-03-03T08:07:26.587Z,35.60
2023-03-03T08:09:59.295Z,35.56
2023-03-03T08:12:29.618Z,35.68
2023-03-03T08:14:57.308Z,35.44
2023-03-03T08:17:25.298Z,35.44
2023-03-03T08:19:53.655Z,35.76
2023-03-03T08:22:23.625Z,35.69
2023-03-03T08:24:50.672Z,35.35
2023-03-03T08:27:17.596Z,35.55
2023-03-03T08:29:45.121Z,35.46
2023-03-03T08:32:13.168Z,35.35
2023-03-03T08:34:40.285Z,35.43
2023-03-03T08:37:07.377Z,34.80
2023-03-03T08:39:34.352Z,34.95
2023-03-03T08:42:01.507Z,34.90
2023-03-03T08:44:28.528Z,34.66
2023-03-03T08:46:55.529Z,34.70
2023-03-03T08:49:22.713Z,34.50
2023-03-03T08:51:49.692Z,34.59
2023-03-03T08:54:16.855Z,34.65
2023-03-03T08:56:43.932Z,34.20
2023-03-03T08:59:11.891Z,34.41
2023-03-03T09:01:39.141Z,34.53
2023-03-03T09:04:06.210Z,34.56
2023-03-03T09:06:33.335Z,34.34
2023-03-03T09:09:00.405Z,34.96
2023-03-03T09:11:28.381Z,35.88
2023-03-03T09:14:00.263Z,36.09
2023-03-03T09:16:30.097Z,35.94
2023-03-03T09:18:57.528Z,35.99
2023-03-03T09:21:27.549Z,36.01
2023-03-03T09:23:56.508Z,36.24
2023-03-03T09:26:31.563Z,35.72
2023-03-03T09:29:05.372Z,35.95
2023-03-03T09:31:39.630Z,35.73
2023-03-03T09:34:09.719Z,35.82
2023-03-03T09:36:38.079Z,35.81
2023-03-03T09:39:08.261Z,35.73
2023-03-03T09:41:38.200Z,35.81
2023-03-03T09:44:17.913Z,35.92
2023-03-03T09:46:47.893Z,35.96
2023-03-03T09:49:18.227Z,35.65
2023-03-03T09:51:51.516Z,36.05
2023-03-03T09:54:18.829Z,35.80
2023-03-03T09:56:47.771Z,35.54
2023-03-03T09:59:17.911Z,35.84
2023-03-03T10:01:47.937Z,35.37
2023-03-03T10:04:18.277Z,35.80
2023-03-03T10:06:49.564Z,35.69
2023-03-03T10:09:19.761Z,35.15
2023-03-03T10:11:47.639Z,35.38
2023-03-03T10:14:15.476Z,35.14
2023-03-03T10:16:45.669Z,35.00
2023-03-03T10:19:15.852Z,34.81
2023-03-03T10:21:46.344Z,34.75
2023-03-03T10:24:16.517Z,34.81
2023-03-03T10:26:50.731Z,34.47
2023-03-03T10:29:24.730Z,34.87
2023-03-03T10:31:52.316Z,34.39
2023-03-03T10:34:22.513Z,34.41
2023-03-03T10:36:52.665Z,34.65
2023-03-03T10:39:22.856Z,34.29
2023-03-03T10:41:59.741Z,34.46
2023-03-03T10:44:29.890Z,34.26
2023-03-03T10:47:00.179Z,34.16
2023-03-03T10:49:29.080Z,34.42
2023-03-03T10:51:56.457Z,34.29
2023-03-03T10:54:30.686Z,34.25
2023-03-03T10:57:00.956Z,34.24
2023-03-03T10:59:28.330Z,34.27
2023-03-03T11:01:58.668Z,34.09
2023-03-03T11:04:34.191Z,34.46
2023-03-03T11:07:06.060Z,34.11
2023-03-03T11:09:35.569Z,34.53
2023-03-03T11:12:02.853Z,34.28
2023-03-03T11:14:34.244Z,34.25
2023-03-03T11:17:04.726Z,34.26
2023-03-03T11:19:36.013Z,34.33
2023-03-03T11:22:09.456Z,34.43
2023-03-03T11:24:39.418Z,34.10
2023-03-03T11:27:09.509Z,34.17
2023-03-03T11:29:44.577Z,34.03
2023-03-03T11:32:14.591Z,34.02
2023-03-03T11:34:44.710Z,34.40
2023-03-03T11:37:16.517Z,34.56
2023-03-03T11:39:44.773Z,34.48
2023-03-03T11:42:15.320Z,34.23
2023-03-03T11:44:44.486Z,34.57
2023-03-03T11:47:14.462Z,34.40
2023-03-03T11:49:42.793Z,34.60
2023-03-03T11:52:12.789Z,34.63
2023-03-03T11:54:47.683Z,34.14
2023-03-03T11:57:15.949Z,34.30
2023-03-03T11:59:50.611Z,34.67
2023-03-03T12:02:25.469Z,34.67
2023-03-03T12:04:55.479Z,34.24
2023-03-03T12:07:25.422Z,34.22
2023-03-03T12:09:55.417Z,34.70
2023-03-03T12:12:24.504Z,34.65
2023-03-03T12:14:54.956Z,34.51
2023-03-03T12:17:25.025Z,34.61
2023-03-03T12:19:54.998Z,34.21
2023-03-03T12:22:29.964Z,34.30
2023-03-03T12:25:00.567Z,34.69
2023-03-03T12:27:30.551Z,34.42
2023-03-03T12:30:00.646Z,34.72
2023-03-03T12:32:28.053Z,34.29
2023-03-03T12:35:09.540Z,34.81
2023-03-03T12:37:36.927Z,34.48
2023-03-03T12:40:08.722Z,34.77
2023-03-03T12:42:42.460Z,34.78
2023-03-03T12:45:12.685Z,34.86
2023-03-03T12:47:46.676Z,34.52
2023-03-03T12:50:23.837Z,35.07
2023-03-03T12:52:51.263Z,34.65
2023-03-03T12:55:28.361Z,34.92
2023-03-03T12:58:03.348Z,34.74
2023-03-03T13:00:36.458Z,34.83
2023-03-03T13:03:03.806Z,34.32
2023-03-03T13:05:46.510Z,34.58
2023-03-03T13:08:16.981Z,34.67
2023-03-03T13:10:50.717Z,34.41
2023-03-03T13:13:20.896Z,34.48
2023-03-03T13:15:55.924Z,34.41
2023-03-03T13:18:26.446Z,34.21
2023-03-03T13:21:08.753Z,33.99
2023-03-03T13:23:38.757Z,34.14
2023-03-03T13:26:21.139Z,34.09
2023-03-03T13:28:48.752Z,33.96
2023-03-03T13:31:20.431Z,34.17
2023-03-03T13:33:53.995Z,34.03
2023-03-03T13:36:23.804Z,33.88
2023-03-03T13:38:53.632Z,33.76
2023-03-03T13:41:24.136Z,34.04
2023-03-03T13:43:54.189Z,34.06
2023-03-03T13:46:34.066Z,33.90
2023-03-03T13:49:04.045Z,33.81
2023-03-03T13:51:34.142Z,33.78
2023-03-03T13:54:02.675Z,33.68
2023-03-03T13:56:32.403Z,33.67
2023-03-03T13:59:09.033Z,33.44
2023-03-03T14:01:47.951Z,33.60
2023-03-03T14:04:15.675Z,33.86
2023-03-03T14:06:48.794Z,33.64
2023-03-03T14:09:19.428Z,33.61
2023-03-03T14:11:49.073Z,34.09
2023-03-03T14:14:19.032Z,33.72
2023-03-03T14:16:46.726Z,33.88
2023-03-03T14:19:17.806Z,33.54
2023-03-03T14:21:47.980Z,33.82
2023-03-03T14:24:18.040Z,33.62
2023-03-03T14:26:49.019Z,33.80
2023-03-03T14:29:21.582Z,33.67
2023-03-03T14:31:48.875Z,33.79
2023-03-03T14:34:30.514Z,33.87
2023-03-03T14:37:01.159Z,34.13
2023-03-03T14:39:31.245Z,34.10
2023-03-03T14:41:59.638Z,33.72
2023-03-03T14:44:27.921Z,33.80
2023-03-03T14:46:57.929Z,34.15
2023-03-03T14:49:27.994Z,34.19
2023-03-03T14:52:01.579Z,34.09
2023-03-03T14:54:34.045Z,33.81
2023-03-03T14:57:04.071Z,34.11
2023-03-03T14:59:31.592Z,33.92
2023-03-03T15:02:01.867Z,34.24
2023-03-03T15:04:31.745Z,34.09
2023-03-03T15:06:59.683Z,34.30
2023-03-03T15:09:36.163Z,34.24
2023-03-03T15:12:13.184Z,34.26
2023-03-03T15:14:45.035Z,34.41
2023-03-03T15:17:17.067Z,34.12
2023-03-03T15:19:44.445Z,34.14
2023-03-03T15:22:18.237Z,34.33
2023-03-03T15:24:54.239Z,34.09
2023-03-03T15:27:27.941Z,34.14
2023-03-03T15:29:55.535Z,34.64
2023-03-03T15:32:23.073Z,34.39
2023-03-03T15:34:54.592Z,34.13
2023-03-03T15:37:25.132Z,34.59
2023-03-03T15:39:52.470Z,34.24
2023-03-03T15:42:24.565Z,34.60
2023-03-03T15:44:53.642Z,34.37
2023-03-03T15:47:29.215Z,34.65
2023-03-03T15:50:02.549Z,34.75
2023-03-03T15:52:33.657Z,34.54
2023-03-03T15:55:07.824Z,34.67
2023-03-03T15:57:36.201Z,34.74
2023-03-03T16:00:03.532Z,34.84
2023-03-03T16:02:33.743Z,34.67
2023-03-03T16:05:19.078Z,34.84
2023-03-03T16:07:47.902Z,35.08
2023-03-03T16:10:19.534Z,34.82
2023-03-03T16:12:50.944Z,34.86
2023-03-03T16:15:20.571Z,34.95
2023-03-03T16:17:51.967Z,34.99
2023-03-03T16:20:23.179Z,34.79
2023-03-03T16:22:54.733Z,34.84
2023-03-03T16:25:24.024Z,34.86
2023-03-03T16:27:52.075Z,35.38
2023-03-03T16:30:21.688Z,35.25
2023-03-03T16:32:51.047Z,35.01
2023-03-03T16:35:27.213Z,35.17
2023-03-03T16:37:58.224Z,35.22
2023-03-03T16:40:28.474Z,35.31
2023-03-03T16:43:01.316Z,35.10
2023-03-03T16:45:35.755Z,35.56
2023-03-03T16:48:12.666Z,35.26
2023-03-03T16:50:46.885Z,35.25
2023-03-03T16:53:15.270Z,35.61
2023-03-03T16:55:51.514Z,35.31
2023-03-03T16:58:21.434Z,35.56
2023-03-03T17:00:52.041Z,35.57
2023-03-03T17:03:22.179Z,35.40
2023-03-03T17:05:53.493Z,35.15
2023-03-03T17:08:20.869Z,34.85
2023-03-03T17:10:51.007Z,35.25
2023-03-03T17:13:19.420Z,35.08
2023-03-03T17:15:48.048Z,34.96
2023-03-03T17:18:18.108Z,34.93
2023-03-03T17:20:46.398Z,34.96
2023-03-03T17:23:13.710Z,34.77
2023-03-03T17:25:41.074Z,34.93
2023-03-03T17:28:09.452Z,34.61
2023-03-03T17:30:44.036Z,34.57
2023-03-03T17:33:14.146Z,34.46
2023-03-03T17:35:44.219Z,34.74
2023-03-03T17:38:14.288Z,34.41
2023-03-03T17:40:44.430Z,34.78
2023-03-03T17:43:14.187Z,34.26
2023-03-03T17:45:43.061Z,34.51
2023-03-03T17:48:11.485Z,34.59
2023-03-03T17:50:39.844Z,34.20
2023-03-03T17:53:08.172Z,34.65
2023-03-03T17:55:38.934Z,34.14
2023-03-03T17:58:07.482Z,34.14
2023-03-03T18:00:37.494Z,34.23
2023-03-03T18:03:07.586Z,34.06
2023-03-03T18:05:37.831Z,34.50
2023-03-03T18:08:07.906Z,34.30
2023-03-03T18:10:42.844Z,34.02
2023-03-03T18:13:13.117Z,34.41
2023-03-03T18:15:43.248Z,34.33
2023-03-03T18:18:10.721Z,34.49
2023-03-03T18:20:40.750Z,34.33
2023-03-03T18:23:10.761Z,34.32
2023-03-03T18:25:40.708Z,34.34
2023-03-03T18:28:08.192Z,34.13
2023-03-03T18:30:42.987Z,34.41
2023-03-03T18:33:11.505Z,34.39
2023-03-03T18:35:38.876Z,34.38
2023-03-03T18:38:10.137Z,34.40
2023-03-03T18:40:48.935Z,34.63
2023-03-03T18:43:18.839Z,34.41
2023-03-03T18:45:46.141Z,34.59
2023-03-03T18:48:13.724Z,34.21
2023-03-03T18:50:41.019Z,34.42
2023-03-03T18:53:10.978Z,34.30
2023-03-03T18:55:42.222Z,34.33
2023-03-03T18:58:12.459Z,34.41
2023-03-03T19:00:45.388Z,34.62
2023-03-03T19:03:15.589Z,34.58
2023-03-03T19:05:48.151Z,34.83
2023-03-03T19:08:18.138Z,34.61
2023-03-03T19:10:48.112Z,34.81
2023-03-03T19:13:18.176Z,34.61
2023-03-03T19:15:47.320Z,34.83
2023-03-03T19:18:14.635Z,34.53
2023-03-03T19:20:43.606Z,34.67
2023-03-03T19:23:14.305Z,34.76
2023-03-03T19:25:41.430Z,35.03
2023-03-03T19:28:11.462Z,34.71
2023-03-03T19:30:42.450Z,34.70
2023-03-03T19:33:16.068Z,34.88
2023-03-03T19:35:49.144Z,34.72
2023-03-03T19:38:20.789Z,35.08
2023-03-03T19:40:50.797Z,34.89
2023-03-03T19:43:18.016Z,35.26
2023-03-03T19:45:47.996Z,34.82
2023-03-03T19:48:17.524Z,35.27
2023-03-03T19:50:46.987Z,35.27
2023-03-03T19:53:14.314Z,34.93
2023-03-03T19:55:41.993Z,34.95
2023-03-03T19:58:18.688Z,35.03
2023-03-03T20:00:48.837Z,35.19
2023-03-03T20:03:18.829Z,35.08
2023-03-03T20:05:49.932Z,35.27
2023-03-03T20:08:17.219Z,35.25
2023-03-03T20:10:48.890Z,35.23
2023-03-03T20:13:18.973Z,35.31
2023-03-03T20:15:49.077Z,35.55
2023-03-03T20:18:19.169Z,35.27
2023-03-03T20:20:48.849Z,35.64
2023-03-03T20:23:17.243Z,35.39
2023-03-03T20:25:47.113Z,35.45
2023-03-03T20:28:18.386Z,35.38
2023-03-03T20:30:50.726Z,35.40
2023-03-03T20:33:26.870Z,35.79
2023-03-03T20:36:02.258Z,35.74
2023-03-03T20:38:35.728Z,35.76
2023-03-03T20:41:07.130Z,35.83
2023-03-03T20:43:37.118Z,35.45
2023-03-03T20:46:08.372Z,35.88
2023-03-03T20:48:44.850Z,35.85
2023-03-03T20:51:14.950Z,35.93
2023-03-03T20:53:43.356Z,36.07
2023-03-03T20:56:13.371Z,35.66
2023-03-03T20:58:40.701Z,36.01
2023-03-03T21:01:10.676Z,36.03
2023-03-03T21:03:39.292Z,35.86
2023-03-03T21:06:09.710Z,35.76
2023-03-03T21:08:39.759Z,35.79
2023-03-03T21:11:09.201Z,36.13
2023-03-03T21:13:45.418Z,36.12
2023-03-03T21:16:17.509Z,35.93
2023-03-03T21:18:57.631Z,35.83
2023-03-03T21:21:27.528Z,36.21
2023-03-03T21:23:54.923Z,36.00
2023-03-03T21:26:26.139Z,35.82
2023-03-03T21:28:57.550Z,36.27
2023-03-03T21:31:26.558Z,36.10
2023-03-03T21:33:55.192Z,36.06
2023-03-03T21:36:25.192Z,36.12
2023-03-03T21:38:53.717Z,36.18
2023-03-03T21:41:21.060Z,36.07
2023-03-03T21:43:49.373Z,36.24
2023-03-03T21:46:19.562Z,36.39
2023-03-03T21:48:46.823Z,36.19
2023-03-03T21:51:15.138Z,36.03
2023-03-03T21:53:44.428Z,36.34
2023-03-03T21:56:13.895Z,36.23
2023-03-03T21:58:41.441Z,36.48
2023-03-03T22:01:08.423Z,36.29
2023-03-03T22:03:38.075Z,36.24
2023-03-03T22:06:05.157Z,36.34
2023-03-03T22:08:32.074Z,36.41
2023-03-03T22:10:58.977Z,36.26
2023-03-03T22:13:26.733Z,36.63
2023-03-03T22:15:53.739Z,36.30
2023-03-03T22:18:21.067Z,36.28
2023-03-03T22:20:48.658Z,36.71
2023-03-03T22:23:15.871Z,36.25
2023-03-03T22:25:42.936Z,36.59
2023-03-03T22:28:09.832Z,36.36
2023-03-03T22:30:37.206Z,36.72
2023-03-03T22:33:04.170Z,36.67
2023-03-03T22:35:31.228Z,36.74
2023-03-03T22:37:58.394Z,36.40
2023-03-03T22:40:25.917Z,36.34
2023-03-03T22:42:53.000Z,36.31
2023-03-03T22:45:24.515Z,36.16
2023-03-03T22:47:51.388Z,36.38
2023-03-03T22:50:19.613Z,36.18
2023-03-03T22:52:46.544Z,36.31
2023-03-03T22:55:13.448Z,36.21
2023-03-03T22:57:40.426Z,35.98
2023-03-03T23:00:12.322Z,36.15
2023-03-03T23:02:40.531Z,36.11
2023-03-03T23:05:10.342Z,35.98
2023-03-03T23:07:38.251Z,35.96
2023-03-03T23:10:05.848Z,36.02
2023-03-03T23:12:34.197Z,35.74
2023-03-03T23:15:04.604Z,36.00
2023-03-03T23:17:31.631Z,35.84
2023-03-03T23:20:01.910Z,35.43
2023-03-03T23:22:30.273Z,35.37
2023-03-03T23:24:59.853Z,35.76
2023-03-03T23:27:28.077Z,35.45
2023-03-03T23:29:55.962Z,35.27
2023-03-03T23:32:25.328Z,35.55
2023-03-03T23:34:59.631Z,35.41
2023-03-03T23:37:27.264Z,35.20
2023-03-03T23:39:54.103Z,35.02
2023-03-03T23:42:21.325Z,35.47
2023-03-03T23:44:48.423Z,35.07
2023-03-03T23:47:15.297Z,35.11
2023-03-03T23:49:42.208Z,35.70
2023-03-03T23:52:09.089Z,35.53
2023-03-03T23:54:35.992Z,35.73
2023-03-03T23:57:02.996Z,35.65
2023-03-03T23:59:29.850Z,35.50
